createdAt,value
2019-04-25T00:00:19.437Z,16.00
2019-04-25T00:01:19.394Z,16.00
2019-04-25T00:02:19.379Z,16.00
2019-04-25T00:03:19.367Z,16.00
2019-04-25T00:04:19.356Z,16.00
2019-04-25T00:05:21.120Z,16.00
2019-04-25T00:06:19.377Z,16.00
2019-04-25T00:07:21.682Z,16.00
2019-04-25T00:08:19.317Z,16.00
2019-04-25T00:09:19.318Z,16.00
2019-04-25T00:10:19.305Z,16.00
2019-04-25T00:11:19.290Z,16.00
2019-04-25T00:12:19.616Z,16.00
2019-04-25T00:13:19.266Z,16.00
2019-04-25T00:14:19.836Z,16.00
2019-04-25T00:15:19.249Z,16.00
2019-04-25T00:16:19.235Z,16.00
2019-04-25T00:17:19.217Z,12.00
2019-04-25T00:18:19.246Z,16.00
2019-04-25T00:19:19.483Z,16.00
2019-04-25T00:20:19.186Z,12.00
2019-04-25T00:21:19.181Z,16.00
2019-04-25T00:22:19.166Z,16.00
2019-04-25T00:23:19.166Z,16.00
2019-04-25T00:24:19.186Z,16.00
2019-04-25T00:25:19.136Z,16.00
2019-04-25T00:26:19.414Z,16.00
2019-04-25T00:27:19.126Z,16.00
2019-04-25T00:28:19.105Z,16.00
2019-04-25T00:29:19.108Z,16.00
2019-04-25T00:30:19.367Z,16.00
2019-04-25T00:31:19.075Z,16.00
2019-04-25T00:32:19.075Z,16.00
2019-04-25T00:33:19.365Z,16.00
2019-04-25T00:34:19.049Z,16.00
2019-04-25T00:35:19.038Z,16.00
2019-04-25T00:36:19.079Z,16.00
2019-04-25T00:37:19.017Z,16.00
2019-04-25T00:38:19.003Z,16.00
2019-04-25T00:39:19.896Z,16.00
2019-04-25T00:40:19.895Z,12.00
2019-04-25T00:41:18.974Z,16.00
2019-04-25T00:42:18.995Z,16.00
2019-04-25T00:43:18.951Z,16.00
2019-04-25T00:44:18.942Z,16.00
2019-04-25T00:45:18.935Z,16.00
2019-04-25T00:46:18.924Z,16.00
2019-04-25T00:47:19.195Z,16.00
2019-04-25T00:48:19.002Z,16.00
2019-04-25T00:49:18.884Z,16.00
2019-04-25T00:50:18.874Z,16.00
2019-04-25T00:51:18.864Z,16.00
2019-04-25T00:52:18.854Z,16.00
2019-04-25T00:53:18.849Z,12.00
2019-04-25T00:54:19.164Z,16.00
2019-04-25T00:55:28.016Z,16.00
2019-04-25T00:56:19.814Z,16.00
2019-04-25T00:57:18.803Z,16.00
2019-04-25T00:58:18.794Z,16.00
2019-04-25T00:59:18.784Z,16.00
2019-04-25T01:00:18.804Z,16.00
2019-04-25T01:01:18.765Z,16.00
2019-04-25T01:02:18.756Z,16.00
2019-04-25T01:03:18.754Z,16.00
2019-04-25T01:04:18.739Z,16.00
2019-04-25T01:05:18.724Z,16.00
2019-04-25T01:06:18.863Z,16.00
2019-04-25T01:07:18.983Z,12.00
2019-04-25T01:08:18.693Z,16.00
2019-04-25T01:09:18.690Z,16.00
2019-04-25T01:10:18.674Z,16.00
2019-04-25T01:11:18.662Z,16.00
2019-04-25T01:12:18.683Z,16.00
2019-04-25T01:13:18.644Z,16.00
2019-04-25T01:14:18.630Z,16.00
2019-04-25T01:15:18.625Z,16.00
2019-04-25T01:16:18.609Z,16.00
2019-04-25T01:17:18.602Z,16.00
2019-04-25T01:18:18.643Z,16.00
2019-04-25T01:19:18.872Z,16.00
2019-04-25T01:20:18.588Z,16.00
2019-04-25T01:21:18.567Z,16.00
2019-04-25T01:22:18.550Z,16.00
2019-04-25T01:23:18.533Z,16.00
2019-04-25T01:24:19.623Z,16.00
2019-04-25T01:25:18.519Z,16.00
2019-04-25T01:26:18.521Z,16.00
2019-04-25T01:27:18.504Z,16.00
2019-04-25T01:28:18.482Z,16.00
2019-04-25T01:29:18.483Z,16.00
2019-04-25T01:30:18.502Z,16.00
2019-04-25T01:31:18.458Z,16.00
2019-04-25T01:32:18.450Z,16.00
2019-04-25T01:33:18.432Z,16.00
2019-04-25T01:34:18.431Z,16.00
2019-04-25T01:35:18.413Z,16.00
2019-04-25T01:36:20.139Z,16.00
2019-04-25T01:37:18.690Z,16.00
2019-04-25T01:38:18.391Z,16.00
2019-04-25T01:39:18.381Z,16.00
2019-04-25T01:40:18.362Z,16.00
2019-04-25T01:41:18.351Z,16.00
2019-04-25T01:42:18.501Z,16.00
2019-04-25T01:43:18.338Z,16.00
2019-04-25T01:44:18.610Z,16.00
2019-04-25T01:45:18.311Z,16.00
2019-04-25T01:46:18.307Z,16.00
2019-04-25T01:47:18.296Z,16.00
2019-04-25T01:48:18.320Z,16.00
2019-04-25T01:49:18.271Z,16.00
2019-04-25T01:50:18.262Z,16.00
2019-04-25T01:51:18.560Z,16.00
2019-04-25T01:52:18.251Z,16.00
2019-04-25T01:53:18.230Z,16.00
2019-04-25T01:54:18.260Z,16.00
2019-04-25T01:55:18.210Z,16.00
2019-04-25T01:56:18.211Z,16.00
2019-04-25T01:57:18.200Z,16.00
2019-04-25T01:58:18.529Z,16.00
2019-04-25T01:59:18.171Z,16.00
2019-04-25T02:01:40.345Z,16.00
2019-04-25T02:02:40.250Z,16.00
2019-04-25T02:03:40.245Z,16.00
2019-04-25T02:04:40.545Z,16.00
2019-04-25T02:05:40.243Z,16.00
2019-04-25T02:06:40.204Z,16.00
2019-04-25T02:07:40.302Z,16.00
2019-04-25T02:08:40.192Z,16.00
2019-04-25T02:09:40.257Z,16.00
2019-04-25T02:10:40.484Z,16.00
2019-04-25T02:11:40.259Z,16.00
2019-04-25T02:12:40.173Z,16.00
2019-04-25T02:13:40.715Z,16.00
2019-04-25T02:14:40.139Z,16.00
2019-04-25T02:18:23.712Z,16.00
2019-04-25T02:19:22.250Z,16.00
2019-04-25T02:20:23.833Z,16.00
2019-04-25T02:21:23.571Z,16.00
2019-04-25T02:22:22.249Z,16.00
2019-04-25T02:23:23.985Z,16.00
2019-04-25T02:24:23.628Z,16.00
2019-04-25T02:25:22.964Z,16.00
2019-04-25T02:26:28.732Z,16.00
2019-04-25T02:27:22.080Z,16.00
2019-04-25T02:28:23.714Z,16.00
2019-04-25T02:29:23.505Z,16.00
2019-04-25T02:30:22.061Z,16.00
2019-04-25T02:31:24.603Z,16.00
2019-04-25T02:32:24.486Z,16.00
2019-04-25T02:33:24.025Z,16.00
2019-04-25T02:34:22.007Z,16.00
2019-04-25T02:35:21.985Z,16.00
2019-04-25T02:36:24.526Z,16.00
2019-04-25T02:37:22.182Z,16.00
2019-04-25T02:38:24.158Z,16.00
2019-04-25T02:39:21.953Z,16.00
2019-04-25T02:40:23.846Z,16.00
2019-04-25T02:41:21.922Z,16.00
2019-04-25T02:42:24.402Z,16.00
2019-04-25T02:43:23.926Z,16.00
2019-04-25T02:44:21.902Z,16.00
2019-04-25T02:45:24.411Z,16.00
2019-04-25T02:46:21.862Z,16.00
2019-04-25T02:47:24.733Z,16.00
2019-04-25T02:48:24.000Z,16.00
2019-04-25T02:49:33.078Z,16.00
2019-04-25T02:50:24.626Z,16.00
2019-04-25T02:51:24.165Z,16.00
2019-04-25T02:52:24.462Z,16.00
2019-04-25T02:53:23.907Z,16.00
2019-04-25T02:54:21.781Z,16.00
2019-04-25T02:55:31.810Z,16.00
2019-04-25T02:56:32.488Z,16.00
2019-04-25T02:57:24.968Z,16.00
2019-04-25T02:58:24.146Z,16.00
2019-04-25T02:59:22.027Z,16.00
2019-04-25T03:00:21.721Z,16.00
2019-04-25T03:01:25.335Z,16.00
2019-04-25T03:02:21.690Z,16.00
2019-04-25T03:03:21.680Z,16.00
2019-04-25T03:04:21.695Z,16.00
2019-04-25T03:05:21.672Z,16.00
2019-04-25T03:06:21.975Z,16.00
2019-04-25T03:07:21.720Z,16.00
2019-04-25T03:08:24.238Z,16.00
2019-04-25T03:09:21.683Z,16.00
2019-04-25T03:10:21.611Z,16.00
2019-04-25T03:11:21.598Z,16.00
2019-04-25T03:12:30.553Z,16.00
2019-04-25T03:13:24.647Z,16.00
2019-04-25T03:14:21.568Z,16.00
2019-04-25T03:15:21.557Z,20.00
2019-04-25T03:16:21.554Z,16.00
2019-04-25T03:17:21.532Z,16.00
2019-04-25T03:18:21.529Z,16.00
2019-04-25T03:19:25.912Z,16.00
2019-04-25T03:20:24.242Z,16.00
2019-04-25T03:21:21.489Z,16.00
2019-04-25T03:22:21.482Z,16.00
2019-04-25T03:23:21.492Z,16.00
2019-04-25T03:24:21.465Z,16.00
2019-04-25T03:25:21.479Z,20.00
2019-04-25T03:26:23.318Z,16.00
2019-04-25T03:27:21.429Z,16.00
2019-04-25T03:28:21.407Z,16.00
2019-04-25T03:29:21.398Z,16.00
2019-04-25T03:30:21.399Z,16.00
2019-04-25T03:31:25.871Z,16.00
2019-04-25T03:32:25.801Z,16.00
2019-04-25T03:33:25.679Z,16.00
2019-04-25T03:34:21.349Z,16.00
2019-04-25T03:35:21.336Z,16.00
2019-04-25T03:36:21.327Z,16.00
2019-04-25T03:37:21.354Z,20.00
2019-04-25T03:38:21.305Z,20.00
2019-04-25T03:39:21.295Z,20.00
2019-04-25T03:40:21.576Z,20.00
2019-04-25T03:41:21.279Z,20.00
2019-04-25T03:42:21.256Z,20.00
2019-04-25T03:43:21.294Z,24.00
2019-04-25T03:44:21.245Z,20.00
2019-04-25T03:45:21.225Z,24.00
2019-04-25T03:46:21.215Z,24.00
2019-04-25T03:47:21.535Z,24.00
2019-04-25T03:48:21.195Z,24.00
2019-04-25T03:49:21.276Z,28.00
2019-04-25T03:50:21.181Z,32.00
2019-04-25T03:51:21.169Z,32.00
2019-04-25T03:52:21.155Z,36.00
2019-04-25T03:53:21.145Z,40.00
2019-04-25T03:54:21.455Z,40.00
2019-04-25T03:55:21.155Z,48.00
2019-04-25T03:56:21.105Z,48.00
2019-04-25T03:57:21.112Z,52.00
2019-04-25T03:58:21.105Z,60.00
2019-04-25T03:59:21.083Z,64.00
2019-04-25T04:00:21.081Z,68.00
2019-04-25T04:01:21.387Z,76.00
2019-04-25T04:02:21.064Z,84.00
2019-04-25T04:03:21.034Z,92.00
2019-04-25T04:04:21.024Z,88.00
2019-04-25T04:05:21.014Z,100.00
2019-04-25T04:06:21.004Z,112.00
2019-04-25T04:07:21.203Z,120.00
2019-04-25T04:08:21.284Z,136.00
2019-04-25T04:09:20.971Z,144.00
2019-04-25T04:10:21.284Z,160.00
2019-04-25T04:11:20.944Z,180.00
2019-04-25T04:12:20.943Z,196.00
2019-04-25T04:13:20.973Z,212.00
2019-04-25T04:14:20.913Z,228.00
2019-04-25T04:15:21.212Z,248.00
2019-04-25T04:16:20.894Z,268.00
2019-04-25T04:17:20.883Z,284.00
2019-04-25T04:18:20.872Z,304.00
2019-04-25T04:19:20.903Z,324.00
2019-04-25T04:20:20.855Z,340.00
2019-04-25T04:21:20.841Z,356.00
2019-04-25T04:22:21.144Z,376.00
2019-04-25T04:23:20.812Z,396.00
2019-04-25T04:24:20.946Z,416.00
2019-04-25T04:25:21.025Z,432.00
2019-04-25T04:26:20.791Z,456.00
2019-04-25T04:27:20.771Z,476.00
2019-04-25T04:28:20.769Z,496.00
2019-04-25T04:29:23.637Z,516.00
2019-04-25T04:30:20.762Z,536.00
2019-04-25T04:31:20.780Z,552.00
2019-04-25T04:32:20.729Z,572.00
2019-04-25T04:33:29.582Z,592.00
2019-04-25T04:34:21.707Z,612.00
2019-04-25T04:35:20.690Z,636.00
2019-04-25T04:36:20.980Z,656.00
2019-04-25T04:37:20.710Z,672.00
2019-04-25T04:38:20.658Z,692.00
2019-04-25T04:39:20.644Z,712.00
2019-04-25T04:40:20.634Z,728.00
2019-04-25T04:41:20.621Z,744.00
2019-04-25T04:42:20.637Z,768.00
2019-04-25T04:43:21.190Z,792.00
2019-04-25T04:44:20.590Z,800.00
2019-04-25T04:45:20.581Z,816.00
2019-04-25T04:46:20.571Z,836.00
2019-04-25T04:47:20.572Z,820.00
2019-04-25T04:48:20.557Z,868.00
2019-04-25T04:49:20.570Z,884.00
2019-04-25T04:50:20.853Z,896.00
2019-04-25T04:51:20.519Z,912.00
2019-04-25T04:52:20.509Z,932.00
2019-04-25T04:53:20.489Z,944.00
2019-04-25T04:54:20.479Z,964.00
2019-04-25T04:55:20.508Z,976.00
2019-04-25T04:56:20.478Z,1000.00
2019-04-25T04:57:28.899Z,1012.00
2019-04-25T04:58:21.448Z,1024.00
2019-04-25T04:59:20.429Z,1036.00
2019-04-25T05:00:20.422Z,1052.00
2019-04-25T05:01:20.469Z,1072.00
2019-04-25T05:02:20.397Z,1088.00
2019-04-25T05:03:20.409Z,1104.00
2019-04-25T05:04:20.708Z,1120.00
2019-04-25T05:05:20.420Z,1140.00
2019-04-25T05:06:20.358Z,1152.00
2019-04-25T05:07:20.398Z,1172.00
2019-04-25T05:08:20.398Z,1184.00
2019-04-25T05:09:20.392Z,1200.00
2019-04-25T05:10:20.325Z,1216.00
2019-04-25T05:11:20.309Z,1236.00
2019-04-25T05:12:20.294Z,1252.00
2019-04-25T05:13:20.331Z,1264.00
2019-04-25T05:14:20.282Z,1276.00
2019-04-25T05:15:20.582Z,1300.00
2019-04-25T05:16:20.266Z,1364.00
2019-04-25T05:17:20.262Z,1396.00
2019-04-25T05:18:33.006Z,1424.00
2019-04-25T05:19:22.401Z,1464.00
2019-04-25T05:20:20.216Z,1500.00
2019-04-25T05:21:20.399Z,1532.00
2019-04-25T05:22:20.424Z,1560.00
2019-04-25T05:23:20.979Z,1580.00
2019-04-25T05:24:20.873Z,1604.00
2019-04-25T05:25:20.662Z,1648.00
2019-04-25T05:26:21.023Z,1684.00
2019-04-25T05:27:35.754Z,1716.00
2019-04-25T05:28:21.126Z,1740.00
2019-04-25T05:29:22.495Z,1748.00
2019-04-25T05:30:20.104Z,1788.00
2019-04-25T05:31:20.149Z,1848.00
2019-04-25T05:32:21.285Z,1896.00
2019-04-25T05:33:22.285Z,1984.00
2019-04-25T05:34:20.080Z,2048.00
2019-04-25T05:35:20.443Z,2124.00
2019-04-25T05:36:21.765Z,2180.00
2019-04-25T05:37:21.767Z,2220.00
2019-04-25T05:38:20.180Z,2268.00
2019-04-25T05:39:20.775Z,2332.00
2019-04-25T05:40:20.144Z,2376.00
2019-04-25T05:41:20.293Z,2440.00
2019-04-25T05:42:20.381Z,2496.00
2019-04-25T05:43:20.466Z,2544.00
2019-04-25T05:44:20.887Z,2604.00
2019-04-25T05:45:20.012Z,2608.00
2019-04-25T05:46:19.935Z,2716.00
2019-04-25T05:47:21.390Z,2768.00
2019-04-25T05:48:19.924Z,2824.00
2019-04-25T05:49:20.223Z,2852.00
2019-04-25T05:50:19.962Z,2904.00
2019-04-25T05:51:19.892Z,2940.00
2019-04-25T05:52:19.941Z,2972.00
2019-04-25T05:53:19.862Z,2988.00
2019-04-25T05:54:20.561Z,3044.00
2019-04-25T05:55:21.097Z,3060.00
2019-04-25T05:56:20.134Z,3092.00
2019-04-25T05:57:19.843Z,3120.00
2019-04-25T05:58:20.465Z,3136.00
2019-04-25T05:59:19.790Z,3156.00
2019-04-25T06:00:20.605Z,3168.00
2019-04-25T06:01:20.730Z,3184.00
2019-04-25T06:02:20.244Z,3196.00
2019-04-25T06:03:19.742Z,3220.00
2019-04-25T06:04:19.783Z,3232.00
2019-04-25T06:05:19.722Z,3244.00
2019-04-25T06:06:19.722Z,3256.00
2019-04-25T06:07:19.732Z,3276.00
2019-04-25T06:08:19.730Z,3248.00
2019-04-25T06:09:20.010Z,3300.00
2019-04-25T06:10:19.694Z,3328.00
2019-04-25T06:11:19.666Z,3316.00
2019-04-25T06:12:19.826Z,3324.00
2019-04-25T06:13:19.702Z,3320.00
2019-04-25T06:14:19.924Z,3328.00
2019-04-25T06:15:19.973Z,3332.00
2019-04-25T06:16:23.678Z,3316.00
2019-04-25T06:17:20.107Z,3344.00
2019-04-25T06:18:19.876Z,3516.00
2019-04-25T06:19:20.864Z,3328.00
2019-04-25T06:20:20.109Z,3320.00
2019-04-25T06:21:20.023Z,3304.00
2019-04-25T06:22:19.976Z,3304.00
2019-04-25T06:23:20.556Z,3260.00
2019-04-25T06:24:20.401Z,3284.00
2019-04-25T06:25:21.175Z,3280.00
2019-04-25T06:26:29.977Z,3312.00
2019-04-25T06:27:20.601Z,3348.00
2019-04-25T06:28:20.251Z,3368.00
2019-04-25T06:29:20.495Z,3376.00
2019-04-25T06:30:20.493Z,3384.00
2019-04-25T06:31:19.930Z,3380.00
2019-04-25T06:32:19.440Z,3404.00
2019-04-25T06:33:21.150Z,3428.00
2019-04-25T06:34:20.009Z,3448.00
2019-04-25T06:35:20.319Z,3472.00
2019-04-25T06:36:20.966Z,3492.00
2019-04-25T06:37:21.217Z,3508.00
2019-04-25T06:38:19.379Z,3444.00
2019-04-25T06:39:20.298Z,3512.00
2019-04-25T06:40:19.693Z,3488.00
2019-04-25T06:41:19.359Z,3528.00
2019-04-25T06:42:19.330Z,3568.00
2019-04-25T06:43:19.359Z,3600.00
2019-04-25T06:44:24.058Z,3780.00
2019-04-25T06:45:22.746Z,4008.00
2019-04-25T06:46:20.188Z,4504.00
2019-04-25T06:47:20.237Z,5476.00
2019-04-25T06:48:19.270Z,6980.00
2019-04-25T06:49:19.332Z,7096.00
2019-04-25T06:50:19.249Z,7176.00
2019-04-25T06:51:19.749Z,7292.00
2019-04-25T06:52:19.228Z,7292.00
2019-04-25T06:53:19.218Z,7484.00
2019-04-25T06:54:19.199Z,7580.00
2019-04-25T06:55:21.019Z,7284.00
2019-04-25T06:56:19.209Z,7748.00
2019-04-25T06:57:19.169Z,7840.00
2019-04-25T06:58:19.459Z,7900.00
2019-04-25T06:59:19.158Z,8012.00
2019-04-25T07:00:19.140Z,8120.00
2019-04-25T07:01:19.186Z,8188.00
2019-04-25T07:02:19.899Z,8264.00
2019-04-25T07:03:19.099Z,8300.00
2019-04-25T07:04:20.306Z,8432.00
2019-04-25T07:05:30.545Z,8540.00
2019-04-25T07:06:20.100Z,8540.00
2019-04-25T07:07:19.118Z,8568.00
2019-04-25T07:08:20.801Z,8740.00
2019-04-25T07:09:19.041Z,8772.00
2019-04-25T07:10:19.024Z,8932.00
2019-04-25T07:11:19.016Z,9048.00
2019-04-25T07:12:19.019Z,9028.00
2019-04-25T07:13:19.040Z,9236.00
2019-04-25T07:14:18.987Z,9368.00
2019-04-25T07:15:18.967Z,9072.00
2019-04-25T07:16:18.958Z,9600.00
2019-04-25T07:17:18.947Z,9716.00
2019-04-25T07:18:19.891Z,9696.00
2019-04-25T07:19:19.552Z,9908.00
2019-04-25T07:20:18.927Z,10044.00
2019-04-25T07:21:18.928Z,10160.00
2019-04-25T07:22:18.909Z,10376.00
2019-04-25T07:23:19.337Z,10576.00
2019-04-25T07:24:18.872Z,10684.00
2019-04-25T07:25:19.440Z,10740.00
2019-04-25T07:26:18.864Z,10820.00
2019-04-25T07:27:18.848Z,10816.00
2019-04-25T07:28:24.336Z,10764.00
2019-04-25T07:29:19.825Z,10648.00
2019-04-25T07:30:27.298Z,10608.00
2019-04-25T07:31:20.454Z,10616.00
2019-04-25T07:32:18.787Z,10616.00
2019-04-25T07:33:18.793Z,10632.00
2019-04-25T07:34:18.786Z,10740.00
2019-04-25T07:35:18.766Z,10916.00
2019-04-25T07:36:18.778Z,11032.00
2019-04-25T07:37:18.778Z,11208.00
2019-04-25T07:38:18.730Z,11312.00
2019-04-25T07:39:18.737Z,11588.00
2019-04-25T07:40:18.744Z,11592.00
2019-04-25T07:41:24.107Z,10844.00
2019-04-25T07:42:18.688Z,10732.00
2019-04-25T07:43:18.736Z,10988.00
2019-04-25T07:44:22.031Z,11688.00
2019-04-25T07:45:19.732Z,12092.00
2019-04-25T07:46:18.943Z,12196.00
2019-04-25T07:47:18.730Z,10248.00
2019-04-25T07:48:19.111Z,10096.00
2019-04-25T07:49:18.673Z,12224.00
2019-04-25T07:50:18.626Z,12572.00
2019-04-25T07:51:18.599Z,12240.00
2019-04-25T07:52:18.608Z,11924.00
2019-04-25T07:53:19.475Z,11948.00
2019-04-25T07:54:18.607Z,12064.00
2019-04-25T07:55:19.008Z,12108.00
2019-04-25T07:56:18.532Z,11492.00
2019-04-25T07:57:18.526Z,12468.00
2019-04-25T07:58:18.535Z,13672.00
2019-04-25T07:59:18.506Z,13864.00
2019-04-25T08:00:18.486Z,14476.00
2019-04-25T08:01:19.063Z,15084.00
2019-04-25T08:02:18.517Z,14808.00
2019-04-25T08:03:18.466Z,14296.00
2019-04-25T08:04:18.446Z,14336.00
2019-04-25T08:05:18.448Z,15620.00
2019-04-25T08:06:18.487Z,15328.00
2019-04-25T08:07:19.329Z,15916.00
2019-04-25T08:08:18.786Z,13324.00
2019-04-25T08:09:18.413Z,16384.00
2019-04-25T08:10:19.838Z,15176.00
2019-04-25T08:11:18.386Z,11736.00
2019-04-25T08:12:18.467Z,12384.00
2019-04-25T08:13:18.888Z,13396.00
2019-04-25T08:14:18.346Z,12700.00
2019-04-25T08:15:19.160Z,10780.00
2019-04-25T08:16:18.449Z,9712.00
2019-04-25T08:17:19.388Z,10672.00
2019-04-25T08:18:18.397Z,15036.00
2019-04-25T08:19:19.536Z,16896.00
2019-04-25T08:20:19.795Z,11700.00
2019-04-25T08:21:18.295Z,10868.00
2019-04-25T08:22:23.328Z,12432.00
2019-04-25T08:23:18.346Z,11496.00
2019-04-25T08:24:18.754Z,10860.00
2019-04-25T08:25:18.463Z,10304.00
2019-04-25T08:26:18.560Z,11240.00
2019-04-25T08:27:19.432Z,12476.00
2019-04-25T08:28:18.776Z,11752.00
2019-04-25T08:29:18.630Z,11552.00
2019-04-25T08:30:18.188Z,12244.00
2019-04-25T08:31:18.214Z,12304.00
2019-04-25T08:32:18.203Z,11504.00
2019-04-25T08:33:18.162Z,11500.00
2019-04-25T08:34:18.186Z,17536.00
2019-04-25T08:35:18.135Z,20704.00
2019-04-25T08:36:18.129Z,19072.00
2019-04-25T08:37:21.079Z,16184.00
2019-04-25T08:38:18.110Z,12476.00
2019-04-25T08:39:18.078Z,10760.00
2019-04-25T08:40:18.190Z,11360.00
2019-04-25T08:41:18.232Z,13908.00
2019-04-25T08:42:18.536Z,13628.00
2019-04-25T08:43:18.634Z,12208.00
2019-04-25T08:44:18.553Z,10064.00
2019-04-25T08:45:18.487Z,15560.00
2019-04-25T08:46:18.047Z,14272.00
2019-04-25T08:47:18.816Z,8392.00
2019-04-25T08:48:18.997Z,10400.00
2019-04-25T08:49:18.030Z,9968.00
2019-04-25T08:50:26.829Z,11084.00
2019-04-25T08:51:18.948Z,10644.00
2019-04-25T08:52:18.291Z,16492.00
2019-04-25T08:53:18.088Z,19200.00
2019-04-25T08:54:18.114Z,18432.00
2019-04-25T08:55:17.999Z,18784.00
2019-04-25T08:56:17.917Z,18176.00
2019-04-25T08:57:19.747Z,18848.00
2019-04-25T08:58:17.894Z,19328.00
2019-04-25T08:59:17.898Z,19712.00
2019-04-25T09:00:18.679Z,20064.00
2019-04-25T09:01:18.022Z,20384.00
2019-04-25T09:02:17.890Z,21376.00
2019-04-25T09:03:17.965Z,22304.00
2019-04-25T09:04:17.902Z,24288.00
2019-04-25T09:05:17.828Z,27904.00
2019-04-25T09:06:19.137Z,33536.00
2019-04-25T09:07:17.851Z,40096.00
2019-04-25T09:08:17.798Z,42112.00
2019-04-25T09:09:17.788Z,22208.00
2019-04-25T09:10:17.796Z,16292.00
2019-04-25T09:11:19.836Z,11536.00
2019-04-25T09:12:17.756Z,18112.00
2019-04-25T09:13:18.198Z,20224.00
2019-04-25T09:14:17.728Z,17440.00
2019-04-25T09:15:17.689Z,23872.00
2019-04-25T09:16:18.168Z,22528.00
2019-04-25T09:17:17.669Z,21280.00
2019-04-25T09:18:18.880Z,17152.00
2019-04-25T09:19:17.803Z,18432.00
2019-04-25T09:20:19.050Z,16452.00
2019-04-25T09:21:17.635Z,17888.00
2019-04-25T09:22:17.618Z,29056.00
2019-04-25T09:23:17.643Z,29120.00
2019-04-25T09:24:17.606Z,28544.00
2019-04-25T09:25:19.212Z,38112.00
2019-04-25T09:26:17.689Z,41216.00
2019-04-25T09:27:18.074Z,47936.00
2019-04-25T09:28:17.628Z,40896.00
2019-04-25T09:29:19.898Z,33920.00
2019-04-25T09:30:17.680Z,37856.00
2019-04-25T09:31:19.139Z,31904.00
2019-04-25T09:32:20.155Z,15324.00
2019-04-25T09:33:17.879Z,10760.00
2019-04-25T09:34:17.489Z,10872.00
2019-04-25T09:35:20.119Z,11084.00
2019-04-25T09:36:17.557Z,10816.00
2019-04-25T09:37:19.226Z,10316.00
2019-04-25T09:38:17.867Z,10352.00
2019-04-25T09:39:17.445Z,10984.00
2019-04-25T09:40:18.040Z,10644.00
2019-04-25T09:41:17.458Z,11608.00
2019-04-25T09:42:17.411Z,12036.00
2019-04-25T09:43:17.450Z,12816.00
2019-04-25T09:44:17.389Z,15240.00
2019-04-25T09:45:17.402Z,15048.00
2019-04-25T09:46:18.240Z,14532.00
2019-04-25T09:47:18.684Z,13852.00
2019-04-25T09:48:18.881Z,14800.00
2019-04-25T09:49:17.559Z,14548.00
2019-04-25T09:50:17.339Z,14544.00
2019-04-25T09:51:17.319Z,17664.00
2019-04-25T09:52:17.299Z,21504.00
2019-04-25T09:53:23.266Z,19968.00
2019-04-25T09:54:18.670Z,14768.00
2019-04-25T09:55:17.302Z,23808.00
2019-04-25T09:56:18.809Z,38240.00
2019-04-25T09:57:17.278Z,62016.00
2019-04-25T09:58:17.452Z,71136.00
2019-04-25T09:59:27.192Z,65664.00
2019-04-25T10:00:18.339Z,70208.00
2019-04-25T10:01:17.601Z,70208.00
2019-04-25T10:02:17.251Z,65376.00
2019-04-25T10:03:17.196Z,40384.00
2019-04-25T10:04:17.172Z,45344.00
2019-04-25T10:05:17.204Z,33632.00
2019-04-25T10:06:17.231Z,40192.00
2019-04-25T10:07:17.225Z,30400.00
2019-04-25T10:08:17.637Z,19424.00
2019-04-25T10:09:18.841Z,14584.00
2019-04-25T10:10:17.202Z,24544.00
2019-04-25T10:11:17.121Z,20320.00
2019-04-25T10:12:17.132Z,28928.00
2019-04-25T10:13:17.307Z,29888.00
2019-04-25T10:14:17.061Z,47648.00
2019-04-25T10:15:17.161Z,31040.00
2019-04-25T10:16:17.041Z,35424.00
2019-04-25T10:17:17.581Z,53856.00
2019-04-25T10:18:17.132Z,53152.00
2019-04-25T10:19:17.861Z,43168.00
2019-04-25T10:20:17.082Z,31200.00
2019-04-25T10:21:17.036Z,48000.00
2019-04-25T10:22:17.451Z,26688.00
2019-04-25T10:23:16.987Z,65856.00
2019-04-25T10:24:17.072Z,44192.00
2019-04-25T10:25:16.962Z,65664.00
2019-04-25T10:26:16.939Z,62496.00
2019-04-25T10:27:18.124Z,54272.00
2019-04-25T10:28:17.851Z,45472.00
2019-04-25T10:29:17.419Z,24288.00
2019-04-25T10:30:21.600Z,16492.00
2019-04-25T10:31:17.882Z,15640.00
2019-04-25T10:32:16.872Z,18112.00
2019-04-25T10:33:16.873Z,27040.00
2019-04-25T10:34:17.015Z,23968.00
2019-04-25T10:35:17.353Z,26176.00
2019-04-25T10:36:17.473Z,35488.00
2019-04-25T10:37:17.625Z,25504.00
2019-04-25T10:38:17.158Z,21920.00
2019-04-25T10:39:19.165Z,23520.00
2019-04-25T10:40:16.787Z,24416.00
2019-04-25T10:41:16.773Z,19776.00
2019-04-25T10:42:16.820Z,17824.00
2019-04-25T10:43:16.801Z,20672.00
2019-04-25T10:44:16.793Z,30336.00
2019-04-25T10:45:23.133Z,40544.00
2019-04-25T10:46:20.524Z,54976.00
2019-04-25T10:47:16.744Z,21344.00
2019-04-25T10:48:19.794Z,32064.00
2019-04-25T10:49:16.698Z,43264.00
2019-04-25T10:50:17.417Z,29056.00
2019-04-25T10:51:16.733Z,24512.00
2019-04-25T10:52:16.671Z,20160.00
2019-04-25T10:53:17.115Z,17312.00
2019-04-25T10:54:16.723Z,14708.00
2019-04-25T10:55:18.157Z,17248.00
2019-04-25T10:56:16.665Z,21376.00
2019-04-25T10:57:17.636Z,16060.00
2019-04-25T10:58:16.615Z,20128.00
2019-04-25T10:59:16.810Z,21184.00
2019-04-25T11:00:18.197Z,37760.00
2019-04-25T11:01:18.114Z,22560.00
2019-04-25T11:02:17.795Z,33792.00
2019-04-25T11:03:17.989Z,15564.00
2019-04-25T11:04:17.849Z,16172.00
2019-04-25T11:05:18.255Z,18464.00
2019-04-25T11:06:17.465Z,35616.00
2019-04-25T11:07:16.751Z,17088.00
2019-04-25T11:08:17.777Z,13940.00
2019-04-25T11:09:16.967Z,24512.00
2019-04-25T11:10:16.468Z,22688.00
2019-04-25T11:11:16.456Z,21120.00
2019-04-25T11:12:17.848Z,63776.00
2019-04-25T11:13:17.905Z,22752.00
2019-04-25T11:14:16.528Z,24128.00
2019-04-25T11:15:17.315Z,22368.00
2019-04-25T11:16:17.757Z,33408.00
2019-04-25T11:17:16.490Z,42592.00
2019-04-25T11:18:16.452Z,28320.00
2019-04-25T11:19:17.656Z,21984.00
2019-04-25T11:20:17.357Z,24736.00
2019-04-25T11:21:16.480Z,22816.00
2019-04-25T11:22:17.098Z,22080.00
2019-04-25T11:23:16.373Z,17632.00
2019-04-25T11:24:16.402Z,16704.00
2019-04-25T11:25:16.306Z,16648.00
2019-04-25T11:26:16.680Z,17344.00
2019-04-25T11:27:16.297Z,16396.00
2019-04-25T11:28:18.040Z,20032.00
2019-04-25T11:29:16.658Z,21440.00
2019-04-25T11:30:16.905Z,23264.00
2019-04-25T11:31:16.657Z,21664.00
2019-04-25T11:32:19.766Z,22592.00
2019-04-25T11:33:16.737Z,24960.00
2019-04-25T11:34:16.895Z,26208.00
2019-04-25T11:35:16.608Z,29568.00
2019-04-25T11:36:17.588Z,40128.00
2019-04-25T11:37:16.596Z,43872.00
2019-04-25T11:38:16.470Z,42432.00
2019-04-25T11:39:16.974Z,55424.00
2019-04-25T11:40:17.565Z,26560.00
2019-04-25T11:41:17.197Z,33824.00
2019-04-25T11:42:17.224Z,52096.00
2019-04-25T11:43:17.157Z,34528.00
2019-04-25T11:44:17.845Z,89824.00
2019-04-25T11:45:18.996Z,49056.00
2019-04-25T11:46:17.265Z,68096.00
2019-04-25T11:47:17.308Z,73888.00
2019-04-25T11:48:17.918Z,75648.00
2019-04-25T11:49:16.557Z,43808.00
2019-04-25T11:50:16.728Z,25024.00
2019-04-25T11:51:16.186Z,32736.00
2019-04-25T11:52:26.956Z,67712.00
2019-04-25T11:53:20.051Z,46272.00
2019-04-25T11:54:16.899Z,80608.00
2019-04-25T11:55:15.998Z,49504.00
2019-04-25T11:56:16.066Z,37024.00
2019-04-25T11:57:17.738Z,53600.00
2019-04-25T11:58:15.965Z,41408.00
2019-04-25T11:59:15.947Z,46272.00
2019-04-25T12:00:22.132Z,48384.00
2019-04-25T12:01:16.981Z,39552.00
2019-04-25T12:02:15.937Z,56992.00
2019-04-25T12:03:15.915Z,20640.00
2019-04-25T12:04:15.915Z,20000.00
2019-04-25T12:05:15.911Z,22592.00
2019-04-25T12:06:16.079Z,18720.00
2019-04-25T12:07:16.318Z,17152.00
2019-04-25T12:08:15.919Z,15980.00
2019-04-25T12:09:15.892Z,12548.00
2019-04-25T12:10:16.234Z,11724.00
2019-04-25T12:11:15.908Z,10692.00
2019-04-25T12:12:16.001Z,9904.00
2019-04-25T12:13:15.833Z,9772.00
2019-04-25T12:14:18.288Z,9948.00
2019-04-25T12:15:15.850Z,10172.00
2019-04-25T12:16:16.415Z,10340.00
2019-04-25T12:17:15.773Z,10420.00